sensor_id;sensor_type;location;lat;lon;timestamp;P1;durP1;ratioP1;P2;durP2;ratioP2
12024;SDS011;6073;53.230;10.444;2022-11-15T00:00:54;37.53;;;22.90;;
12024;SDS011;6073;53.230;10.444;2022-11-15T00:13:36;29.25;;;20.08;;
12024;SDS011;6073;53.230;10.444;2022-11-15T00:16:02;30.40;;;20.25;;
12024;SDS011;6073;53.230;10.444;2022-11-15T00:21:27;31.02;;;20.90;;
12024;SDS011;6073;53.230;10.444;2022-11-15T00:23:59;31.48;;;21.08;;
12024;SDS011;6073;53.230;10.444;2022-11-15T00:26:27;30.80;;;20.00;;
12024;SDS011;6073;53.230;10.444;2022-11-15T00:29:32;30.30;;;20.77;;
12024;SDS011;6073;53.230;10.444;2022-11-15T00:31:57;32.60;;;21.90;;
12024;SDS011;6073;53.230;10.444;2022-11-15T00:34:28;28.77;;;20.17;;
12024;SDS011;6073;53.230;10.444;2022-11-15T00:36:54;31.33;;;20.45;;
12024;SDS011;6073;53.230;10.444;2022-11-15T00:39:35;32.35;;;20.40;;
12024;SDS011;6073;53.230;10.444;2022-11-15T00:42:04;30.80;;;19.40;;
12024;SDS011;6073;53.230;10.444;2022-11-15T00:44:33;29.45;;;19.65;;
12024;SDS011;6073;53.230;10.444;2022-11-15T00:46:58;28.48;;;18.40;;
12024;SDS011;6073;53.230;10.444;2022-11-15T00:49:27;28.08;;;19.17;;
12024;SDS011;6073;53.230;10.444;2022-11-15T00:51:58;29.50;;;19.65;;
12024;SDS011;6073;53.230;10.444;2022-11-15T00:54:33;28.55;;;20.15;;
12024;SDS011;6073;53.230;10.444;2022-11-15T00:57:08;29.67;;;20.30;;
12024;SDS011;6073;53.230;10.444;2022-11-15T00:59:36;29.33;;;18.45;;
12024;SDS011;6073;53.230;10.444;2022-11-15T01:02:07;25.60;;;19.13;;
12024;SDS011;6073;53.230;10.444;2022-11-15T01:04:39;28.80;;;19.20;;
12024;SDS011;6073;53.230;10.444;2022-11-15T01:07:07;28.85;;;20.05;;
12024;SDS011;6073;53.230;10.444;2022-11-15T01:09:39;31.58;;;19.95;;
12024;SDS011;6073;53.230;10.444;2022-11-15T01:12:07;29.10;;;19.25;;
12024;SDS011;6073;53.230;10.444;2022-11-15T01:14:33;29.63;;;19.98;;
12024;SDS011;6073;53.230;10.444;2022-11-15T01:17:04;27.85;;;19.48;;
12024;SDS011;6073;53.230;10.444;2022-11-15T01:19:30;29.13;;;19.23;;
12024;SDS011;6073;53.230;10.444;2022-11-15T01:21:58;26.50;;;18.52;;
12024;SDS011;6073;53.230;10.444;2022-11-15T01:24:24;27.90;;;19.58;;
12024;SDS011;6073;53.230;10.444;2022-11-15T01:26:55;27.58;;;19.52;;
12024;SDS011;6073;53.230;10.444;2022-11-15T01:29:27;28.35;;;18.83;;
12024;SDS011;6073;53.230;10.444;2022-11-15T01:31:53;28.42;;;19.10;;
12024;SDS011;6073;53.230;10.444;2022-11-15T01:34:24;29.13;;;20.70;;
12024;SDS011;6073;53.230;10.444;2022-11-15T01:36:50;27.85;;;18.25;;
12024;SDS011;6073;53.230;10.444;2022-11-15T01:39:15;29.58;;;20.00;;
12024;SDS011;6073;53.230;10.444;2022-11-15T01:41:41;29.00;;;19.05;;
12024;SDS011;6073;53.230;10.444;2022-11-15T01:47:02;26.77;;;17.50;;
12024;SDS011;6073;53.230;10.444;2022-11-15T01:50:04;27.92;;;17.92;;
12024;SDS011;6073;53.230;10.444;2022-11-15T01:52:32;29.00;;;19.17;;
12024;SDS011;6073;53.230;10.444;2022-11-15T01:55:16;27.30;;;18.15;;
12024;SDS011;6073;53.230;10.444;2022-11-15T01:57:48;28.63;;;18.05;;
12024;SDS011;6073;53.230;10.444;2022-11-15T02:00:17;26.25;;;17.63;;
12024;SDS011;6073;53.230;10.444;2022-11-15T02:02:46;27.33;;;17.58;;
12024;SDS011;6073;53.230;10.444;2022-11-15T02:05:11;23.80;;;16.75;;
12024;SDS011;6073;53.230;10.444;2022-11-15T02:07:38;27.08;;;18.02;;
12024;SDS011;6073;53.230;10.444;2022-11-15T02:10:09;27.52;;;18.08;;
12024;SDS011;6073;53.230;10.444;2022-11-15T02:12:38;26.80;;;17.65;;
12024;SDS011;6073;53.230;10.444;2022-11-15T02:15:04;25.85;;;17.50;;
12024;SDS011;6073;53.230;10.444;2022-11-15T02:26:45;26.35;;;17.30;;
12024;SDS011;6073;53.230;10.444;2022-11-15T02:41:24;31.30;;;18.17;;
12024;SDS011;6073;53.230;10.444;2022-11-15T02:44:12;29.02;;;18.67;;
12024;SDS011;6073;53.230;10.444;2022-11-15T02:46:54;25.42;;;17.75;;
12024;SDS011;6073;53.230;10.444;2022-11-15T02:49:55;29.40;;;19.27;;
12024;SDS011;6073;53.230;10.444;2022-11-15T02:52:35;29.63;;;17.83;;
12024;SDS011;6073;53.230;10.444;2022-11-15T02:55:04;27.77;;;17.35;;
12024;SDS011;6073;53.230;10.444;2022-11-15T02:57:51;26.55;;;17.73;;
12024;SDS011;6073;53.230;10.444;2022-11-15T03:00:23;29.95;;;18.80;;
12024;SDS011;6073;53.230;10.444;2022-11-15T03:05:35;29.95;;;19.02;;
12024;SDS011;6073;53.230;10.444;2022-11-15T03:08:10;28.05;;;18.95;;
12024;SDS011;6073;53.230;10.444;2022-11-15T03:13:27;29.65;;;18.52;;
12024;SDS011;6073;53.230;10.444;2022-11-15T03:16:14;26.83;;;17.73;;
12024;SDS011;6073;53.230;10.444;2022-11-15T03:18:47;27.92;;;18.35;;
12024;SDS011;6073;53.230;10.444;2022-11-15T03:21:43;27.63;;;17.73;;
12024;SDS011;6073;53.230;10.444;2022-11-15T03:24:10;26.02;;;17.15;;
12024;SDS011;6073;53.230;10.444;2022-11-15T03:26:39;27.08;;;16.80;;
12024;SDS011;6073;53.230;10.444;2022-11-15T03:29:29;22.90;;;15.73;;
12024;SDS011;6073;53.230;10.444;2022-11-15T03:31:58;25.70;;;16.15;;
12024;SDS011;6073;53.230;10.444;2022-11-15T03:34:29;24.15;;;16.13;;
12024;SDS011;6073;53.230;10.444;2022-11-15T03:37:15;23.40;;;15.43;;
12024;SDS011;6073;53.230;10.444;2022-11-15T03:39:42;27.48;;;16.95;;
12024;SDS011;6073;53.230;10.444;2022-11-15T03:44:52;28.13;;;17.60;;
12024;SDS011;6073;53.230;10.444;2022-11-15T03:47:28;24.23;;;16.00;;
12024;SDS011;6073;53.230;10.444;2022-11-15T03:49:59;25.70;;;16.70;;
12024;SDS011;6073;53.230;10.444;2022-11-15T03:52:35;26.45;;;18.13;;
12024;SDS011;6073;53.230;10.444;2022-11-15T03:55:02;23.77;;;16.40;;
12024;SDS011;6073;53.230;10.444;2022-11-15T03:57:30;28.48;;;17.92;;
12024;SDS011;6073;53.230;10.444;2022-11-15T03:59:56;26.52;;;17.05;;
12024;SDS011;6073;53.230;10.444;2022-11-15T04:02:22;24.23;;;16.30;;
12024;SDS011;6073;53.230;10.444;2022-11-15T04:04:47;25.33;;;15.75;;
12024;SDS011;6073;53.230;10.444;2022-11-15T04:07:13;23.77;;;16.20;;
12024;SDS011;6073;53.230;10.444;2022-11-15T04:09:38;25.58;;;16.52;;
12024;SDS011;6073;53.230;10.444;2022-11-15T04:12:24;23.35;;;16.15;;
12024;SDS011;6073;53.230;10.444;2022-11-15T04:14:56;23.35;;;17.30;;
12024;SDS011;6073;53.230;10.444;2022-11-15T04:17:32;24.85;;;16.02;;
12024;SDS011;6073;53.230;10.444;2022-11-15T04:20:18;25.05;;;15.70;;
12024;SDS011;6073;53.230;10.444;2022-11-15T04:23:04;23.05;;;15.52;;
12024;SDS011;6073;53.230;10.444;2022-11-15T04:25:49;24.98;;;15.77;;
12024;SDS011;6073;53.230;10.444;2022-11-15T04:28:16;22.85;;;15.75;;
12024;SDS011;6073;53.230;10.444;2022-11-15T04:30:42;22.85;;;15.60;;
12024;SDS011;6073;53.230;10.444;2022-11-15T04:33:08;24.42;;;15.80;;
12024;SDS011;6073;53.230;10.444;2022-11-15T04:35:33;23.42;;;15.73;;
12024;SDS011;6073;53.230;10.444;2022-11-15T04:37:59;21.63;;;16.10;;
12024;SDS011;6073;53.230;10.444;2022-11-15T04:40:26;23.95;;;15.57;;
12024;SDS011;6073;53.230;10.444;2022-11-15T04:42:52;23.13;;;15.95;;
12024;SDS011;6073;53.230;10.444;2022-11-15T04:45:17;23.80;;;16.25;;
12024;SDS011;6073;53.230;10.444;2022-11-15T04:47:43;27.30;;;17.30;;
12024;SDS011;6073;53.230;10.444;2022-11-15T04:50:10;24.17;;;16.80;;
12024;SDS011;6073;53.230;10.444;2022-11-15T04:52:38;25.70;;;17.25;;
12024;SDS011;6073;53.230;10.444;2022-11-15T04:55:05;21.58;;;15.68;;
12024;SDS011;6073;53.230;10.444;2022-11-15T04:57:30;28.05;;;17.20;;
12024;SDS011;6073;53.230;10.444;2022-11-15T04:59:56;24.15;;;16.27;;
12024;SDS011;6073;53.230;10.444;2022-11-15T05:02:21;26.58;;;16.85;;
12024;SDS011;6073;53.230;10.444;2022-11-15T05:04:47;23.38;;;16.38;;
12024;SDS011;6073;53.230;10.444;2022-11-15T05:07:12;25.30;;;16.98;;
12024;SDS011;6073;53.230;10.444;2022-11-15T05:09:38;24.67;;;16.55;;
12024;SDS011;6073;53.230;10.444;2022-11-15T05:12:03;22.73;;;15.50;;
12024;SDS011;6073;53.230;10.444;2022-11-15T05:14:29;25.27;;;16.48;;
12024;SDS011;6073;53.230;10.444;2022-11-15T05:16:55;26.85;;;17.02;;
12024;SDS011;6073;53.230;10.444;2022-11-15T05:19:20;22.98;;;15.65;;
12024;SDS011;6073;53.230;10.444;2022-11-15T05:21:46;24.25;;;16.33;;
12024;SDS011;6073;53.230;10.444;2022-11-15T05:24:12;26.00;;;16.98;;
12024;SDS011;6073;53.230;10.444;2022-11-15T05:26:37;25.88;;;17.15;;
12024;SDS011;6073;53.230;10.444;2022-11-15T05:29:03;28.05;;;17.45;;
12024;SDS011;6073;53.230;10.444;2022-11-15T05:31:28;26.52;;;17.88;;
12024;SDS011;6073;53.230;10.444;2022-11-15T05:33:55;25.15;;;17.23;;
12024;SDS011;6073;53.230;10.444;2022-11-15T05:36:38;24.15;;;16.25;;
12024;SDS011;6073;53.230;10.444;2022-11-15T05:39:07;26.13;;;17.13;;
12024;SDS011;6073;53.230;10.444;2022-11-15T05:41:35;27.08;;;16.73;;
12024;SDS011;6073;53.230;10.444;2022-11-15T05:44:09;24.88;;;15.75;;
12024;SDS011;6073;53.230;10.444;2022-11-15T05:46:37;25.00;;;16.40;;
12024;SDS011;6073;53.230;10.444;2022-11-15T05:49:04;21.50;;;15.93;;
12024;SDS011;6073;53.230;10.444;2022-11-15T05:51:35;24.50;;;16.58;;
12024;SDS011;6073;53.230;10.444;2022-11-15T05:54:00;25.08;;;16.52;;
12024;SDS011;6073;53.230;10.444;2022-11-15T05:56:27;21.67;;;15.30;;
12024;SDS011;6073;53.230;10.444;2022-11-15T05:58:53;21.58;;;16.13;;
12024;SDS011;6073;53.230;10.444;2022-11-15T06:01:21;23.38;;;16.00;;
12024;SDS011;6073;53.230;10.444;2022-11-15T06:03:48;21.83;;;15.70;;
12024;SDS011;6073;53.230;10.444;2022-11-15T06:06:13;21.05;;;15.10;;
12024;SDS011;6073;53.230;10.444;2022-11-15T06:08:39;23.27;;;15.40;;
12024;SDS011;6073;53.230;10.444;2022-11-15T06:11:05;23.35;;;16.95;;
12024;SDS011;6073;53.230;10.444;2022-11-15T06:13:32;21.42;;;15.05;;
12024;SDS011;6073;53.230;10.444;2022-11-15T06:15:58;23.02;;;15.93;;
12024;SDS011;6073;53.230;10.444;2022-11-15T06:18:24;24.45;;;16.98;;
12024;SDS011;6073;53.230;10.444;2022-11-15T06:20:50;24.48;;;17.00;;
12024;SDS011;6073;53.230;10.444;2022-11-15T06:23:16;22.42;;;15.43;;
12024;SDS011;6073;53.230;10.444;2022-11-15T06:25:41;21.95;;;15.48;;
12024;SDS011;6073;53.230;10.444;2022-11-15T06:28:07;23.77;;;15.93;;
12024;SDS011;6073;53.230;10.444;2022-11-15T06:30:33;23.88;;;16.27;;
12024;SDS011;6073;53.230;10.444;2022-11-15T06:33:02;22.10;;;15.85;;
12024;SDS011;6073;53.230;10.444;2022-11-15T06:35:29;23.83;;;15.95;;
12024;SDS011;6073;53.230;10.444;2022-11-15T06:37:56;21.17;;;14.85;;
12024;SDS011;6073;53.230;10.444;2022-11-15T06:40:27;22.33;;;14.50;;
12024;SDS011;6073;53.230;10.444;2022-11-15T06:42:57;23.42;;;14.95;;
12024;SDS011;6073;53.230;10.444;2022-11-15T06:45:23;20.10;;;15.25;;
12024;SDS011;6073;53.230;10.444;2022-11-15T06:47:49;25.85;;;15.93;;
12024;SDS011;6073;53.230;10.444;2022-11-15T06:50:14;21.85;;;16.20;;
12024;SDS011;6073;53.230;10.444;2022-11-15T06:52:40;22.17;;;15.77;;
12024;SDS011;6073;53.230;10.444;2022-11-15T06:55:06;24.30;;;16.30;;
12024;SDS011;6073;53.230;10.444;2022-11-15T06:57:32;20.90;;;14.45;;
12024;SDS011;6073;53.230;10.444;2022-11-15T06:59:57;21.58;;;15.15;;
12024;SDS011;6073;53.230;10.444;2022-11-15T07:02:23;20.10;;;14.43;;
12024;SDS011;6073;53.230;10.444;2022-11-15T07:04:48;19.13;;;14.60;;
12024;SDS011;6073;53.230;10.444;2022-11-15T07:07:14;21.90;;;15.63;;
12024;SDS011;6073;53.230;10.444;2022-11-15T07:09:39;22.17;;;15.75;;
12024;SDS011;6073;53.230;10.444;2022-11-15T07:12:05;21.35;;;14.18;;
12024;SDS011;6073;53.230;10.444;2022-11-15T07:14:30;21.35;;;15.48;;
12024;SDS011;6073;53.230;10.444;2022-11-15T07:16:56;19.48;;;14.23;;
12024;SDS011;6073;53.230;10.444;2022-11-15T07:19:21;20.48;;;14.27;;
12024;SDS011;6073;53.230;10.444;2022-11-15T07:21:47;24.73;;;16.88;;
12024;SDS011;6073;53.230;10.444;2022-11-15T07:24:13;21.45;;;16.05;;
12024;SDS011;6073;53.230;10.444;2022-11-15T07:26:38;18.77;;;13.68;;
12024;SDS011;6073;53.230;10.444;2022-11-15T07:29:03;20.10;;;15.45;;
12024;SDS011;6073;53.230;10.444;2022-11-15T07:31:29;19.75;;;14.73;;
12024;SDS011;6073;53.230;10.444;2022-11-15T07:33:54;18.55;;;14.18;;
12024;SDS011;6073;53.230;10.444;2022-11-15T07:36:20;20.83;;;14.85;;
12024;SDS011;6073;53.230;10.444;2022-11-15T07:38:45;21.73;;;14.45;;
12024;SDS011;6073;53.230;10.444;2022-11-15T07:41:11;18.73;;;13.88;;
12024;SDS011;6073;53.230;10.444;2022-11-15T07:43:36;21.30;;;14.13;;
12024;SDS011;6073;53.230;10.444;2022-11-15T07:46:06;17.00;;;13.35;;
12024;SDS011;6073;53.230;10.444;2022-11-15T07:48:34;17.67;;;13.25;;
12024;SDS011;6073;53.230;10.444;2022-11-15T07:51:00;20.08;;;13.60;;
12024;SDS011;6073;53.230;10.444;2022-11-15T07:53:25;16.02;;;12.73;;
12024;SDS011;6073;53.230;10.444;2022-11-15T07:55:51;17.98;;;13.23;;
12024;SDS011;6073;53.230;10.444;2022-11-15T07:58:18;16.70;;;12.95;;
12024;SDS011;6073;53.230;10.444;2022-11-15T08:00:44;17.83;;;13.40;;
12024;SDS011;6073;53.230;10.444;2022-11-15T08:03:11;17.00;;;13.00;;
12024;SDS011;6073;53.230;10.444;2022-11-15T08:05:39;17.70;;;13.15;;
12024;SDS011;6073;53.230;10.444;2022-11-15T08:08:05;16.02;;;12.20;;
12024;SDS011;6073;53.230;10.444;2022-11-15T08:10:32;16.27;;;12.32;;
12024;SDS011;6073;53.230;10.444;2022-11-15T08:13:01;15.85;;;12.40;;
12024;SDS011;6073;53.230;10.444;2022-11-15T08:15:27;18.27;;;13.27;;
12024;SDS011;6073;53.230;10.444;2022-11-15T08:17:57;15.13;;;11.63;;
12024;SDS011;6073;53.230;10.444;2022-11-15T08:20:25;15.85;;;12.25;;
12024;SDS011;6073;53.230;10.444;2022-11-15T08:22:54;16.88;;;11.93;;
12024;SDS011;6073;53.230;10.444;2022-11-15T08:25:23;15.93;;;12.00;;
12024;SDS011;6073;53.230;10.444;2022-11-15T08:27:54;15.52;;;11.95;;
12024;SDS011;6073;53.230;10.444;2022-11-15T08:30:25;15.90;;;11.80;;
12024;SDS011;6073;53.230;10.444;2022-11-15T08:32:52;14.93;;;11.30;;
12024;SDS011;6073;53.230;10.444;2022-11-15T08:35:18;13.98;;;10.60;;
12024;SDS011;6073;53.230;10.444;2022-11-15T08:37:45;18.67;;;12.13;;
12024;SDS011;6073;53.230;10.444;2022-11-15T08:40:11;12.88;;;10.18;;
12024;SDS011;6073;53.230;10.444;2022-11-15T08:42:37;15.30;;;11.05;;
12024;SDS011;6073;53.230;10.444;2022-11-15T08:45:03;15.63;;;11.20;;
12024;SDS011;6073;53.230;10.444;2022-11-15T08:47:29;14.13;;;11.00;;
12024;SDS011;6073;53.230;10.444;2022-11-15T08:49:54;12.48;;;10.48;;
12024;SDS011;6073;53.230;10.444;2022-11-15T08:52:20;12.98;;;10.85;;
12024;SDS011;6073;53.230;10.444;2022-11-15T08:54:46;13.50;;;10.07;;
12024;SDS011;6073;53.230;10.444;2022-11-15T08:57:12;13.35;;;10.63;;
12024;SDS011;6073;53.230;10.444;2022-11-15T08:59:37;15.82;;;10.85;;
12024;SDS011;6073;53.230;10.444;2022-11-15T09:02:11;15.10;;;10.63;;
12024;SDS011;6073;53.230;10.444;2022-11-15T09:04:34;13.73;;;10.40;;
12024;SDS011;6073;53.230;10.444;2022-11-15T09:07:03;12.63;;;10.07;;
12024;SDS011;6073;53.230;10.444;2022-11-15T09:09:29;13.13;;;9.63;;
12024;SDS011;6073;53.230;10.444;2022-11-15T09:11:54;12.43;;;10.25;;
12024;SDS011;6073;53.230;10.444;2022-11-15T09:14:20;13.98;;;10.60;;
12024;SDS011;6073;53.230;10.444;2022-11-15T09:16:45;13.88;;;10.52;;
12024;SDS011;6073;53.230;10.444;2022-11-15T09:19:21;12.35;;;10.25;;
12024;SDS011;6073;53.230;10.444;2022-11-15T09:21:46;14.60;;;10.80;;
12024;SDS011;6073;53.230;10.444;2022-11-15T09:24:12;13.38;;;10.68;;
12024;SDS011;6073;53.230;10.444;2022-11-15T09:26:41;13.82;;;10.43;;
12024;SDS011;6073;53.230;10.444;2022-11-15T09:29:06;14.25;;;10.65;;
12024;SDS011;6073;53.230;10.444;2022-11-15T09:31:35;16.48;;;11.02;;
12024;SDS011;6073;53.230;10.444;2022-11-15T09:36:47;11.25;;;9.40;;
12024;SDS011;6073;53.230;10.444;2022-11-15T09:39:13;11.15;;;9.43;;
12024;SDS011;6073;53.230;10.444;2022-11-15T09:45:26;11.98;;;9.10;;
12024;SDS011;6073;53.230;10.444;2022-11-15T09:47:59;12.13;;;9.05;;
12024;SDS011;6073;53.230;10.444;2022-11-15T09:50:51;12.13;;;8.93;;
12024;SDS011;6073;53.230;10.444;2022-11-15T09:53:27;10.48;;;8.93;;
12024;SDS011;6073;53.230;10.444;2022-11-15T09:56:01;10.52;;;8.85;;
12024;SDS011;6073;53.230;10.444;2022-11-15T09:58:35;12.63;;;9.52;;
12024;SDS011;6073;53.230;10.444;2022-11-15T10:04:15;9.65;;;7.43;;
12024;SDS011;6073;53.230;10.444;2022-11-15T10:06:45;8.93;;;7.85;;
12024;SDS011;6073;53.230;10.444;2022-11-15T10:12:13;8.98;;;7.90;;
12024;SDS011;6073;53.230;10.444;2022-11-15T10:14:41;8.70;;;7.25;;
12024;SDS011;6073;53.230;10.444;2022-11-15T10:20:10;9.73;;;7.47;;
12024;SDS011;6073;53.230;10.444;2022-11-15T10:25:29;9.38;;;7.35;;
12024;SDS011;6073;53.230;10.444;2022-11-15T10:27:59;9.70;;;7.72;;
12024;SDS011;6073;53.230;10.444;2022-11-15T10:30:33;9.48;;;7.32;;
12024;SDS011;6073;53.230;10.444;2022-11-15T10:33:23;10.02;;;7.63;;
12024;SDS011;6073;53.230;10.444;2022-11-15T10:41:21;9.07;;;7.32;;
12024;SDS011;6073;53.230;10.444;2022-11-15T10:46:32;8.77;;;7.68;;
12024;SDS011;6073;53.230;10.444;2022-11-15T10:49:11;12.80;;;7.32;;
12024;SDS011;6073;53.230;10.444;2022-11-15T10:51:40;8.07;;;7.00;;
12024;SDS011;6073;53.230;10.444;2022-11-15T10:54:10;10.15;;;7.00;;
12024;SDS011;6073;53.230;10.444;2022-11-15T10:56:39;8.32;;;6.93;;
12024;SDS011;6073;53.230;10.444;2022-11-15T10:59:08;10.57;;;6.95;;
12024;SDS011;6073;53.230;10.444;2022-11-15T11:01:45;7.85;;;6.25;;
12024;SDS011;6073;53.230;10.444;2022-11-15T11:04:12;7.72;;;5.82;;
12024;SDS011;6073;53.230;10.444;2022-11-15T11:06:56;7.43;;;6.65;;
12024;SDS011;6073;53.230;10.444;2022-11-15T11:11:59;8.52;;;6.85;;
12024;SDS011;6073;53.230;10.444;2022-11-15T11:14:30;7.88;;;6.47;;
12024;SDS011;6073;53.230;10.444;2022-11-15T11:20:02;7.95;;;6.53;;
12024;SDS011;6073;53.230;10.444;2022-11-15T11:36:30;8.23;;;6.45;;
12024;SDS011;6073;53.230;10.444;2022-11-15T11:44:55;8.65;;;6.25;;
12024;SDS011;6073;53.230;10.444;2022-11-15T11:47:51;7.22;;;5.70;;
12024;SDS011;6073;53.230;10.444;2022-11-15T11:50:34;7.78;;;5.90;;
12024;SDS011;6073;53.230;10.444;2022-11-15T11:53:04;7.07;;;6.05;;
12024;SDS011;6073;53.230;10.444;2022-11-15T11:55:56;6.68;;;5.63;;
12024;SDS011;6073;53.230;10.444;2022-11-15T11:58:29;6.95;;;5.50;;
12024;SDS011;6073;53.230;10.444;2022-11-15T12:01:11;9.40;;;6.25;;
12024;SDS011;6073;53.230;10.444;2022-11-15T12:03:58;7.35;;;5.53;;
12024;SDS011;6073;53.230;10.444;2022-11-15T12:06:31;6.72;;;5.65;;
12024;SDS011;6073;53.230;10.444;2022-11-15T12:15:31;8.43;;;5.90;;
12024;SDS011;6073;53.230;10.444;2022-11-15T12:18:16;6.95;;;5.45;;
12024;SDS011;6073;53.230;10.444;2022-11-15T12:20:47;6.47;;;5.88;;
12024;SDS011;6073;53.230;10.444;2022-11-15T12:23:26;7.45;;;5.82;;
12024;SDS011;6073;53.230;10.444;2022-11-15T12:26:00;7.25;;;5.90;;
12024;SDS011;6073;53.230;10.444;2022-11-15T12:28:37;7.50;;;6.10;;
12024;SDS011;6073;53.230;10.444;2022-11-15T12:31:21;5.85;;;5.15;;
12024;SDS011;6073;53.230;10.444;2022-11-15T12:36:47;7.43;;;5.95;;
12024;SDS011;6073;53.230;10.444;2022-11-15T12:39:14;8.07;;;6.25;;
12024;SDS011;6073;53.230;10.444;2022-11-15T12:41:43;8.10;;;6.63;;
12024;SDS011;6073;53.230;10.444;2022-11-15T13:02:18;9.45;;;6.80;;
12024;SDS011;6073;53.230;10.444;2022-11-15T13:04:44;7.45;;;6.65;;
12024;SDS011;6073;53.230;10.444;2022-11-15T13:18:18;7.60;;;5.47;;
12024;SDS011;6073;53.230;10.444;2022-11-15T13:20:56;7.63;;;6.07;;
12024;SDS011;6073;53.230;10.444;2022-11-15T13:23:21;8.60;;;6.15;;
12024;SDS011;6073;53.230;10.444;2022-11-15T13:26:00;7.45;;;6.32;;
12024;SDS011;6073;53.230;10.444;2022-11-15T13:31:05;10.18;;;6.30;;
12024;SDS011;6073;53.230;10.444;2022-11-15T13:33:45;7.78;;;5.95;;
12024;SDS011;6073;53.230;10.444;2022-11-15T13:38:43;7.63;;;6.18;;
12024;SDS011;6073;53.230;10.444;2022-11-15T13:41:19;7.22;;;5.72;;
12024;SDS011;6073;53.230;10.444;2022-11-15T13:43:48;7.82;;;6.28;;
12024;SDS011;6073;53.230;10.444;2022-11-15T13:46:17;7.95;;;6.20;;
12024;SDS011;6073;53.230;10.444;2022-11-15T13:49:14;7.97;;;6.35;;
12024;SDS011;6073;53.230;10.444;2022-11-15T13:51:44;7.35;;;6.18;;
12024;SDS011;6073;53.230;10.444;2022-11-15T13:54:20;7.22;;;5.85;;
12024;SDS011;6073;53.230;10.444;2022-11-15T13:57:11;6.75;;;6.05;;
12024;SDS011;6073;53.230;10.444;2022-11-15T13:59:56;6.95;;;5.82;;
12024;SDS011;6073;53.230;10.444;2022-11-15T14:02:27;7.78;;;6.18;;
12024;SDS011;6073;53.230;10.444;2022-11-15T14:05:00;10.02;;;6.90;;
12024;SDS011;6073;53.230;10.444;2022-11-15T14:07:40;8.25;;;6.70;;
12024;SDS011;6073;53.230;10.444;2022-11-15T14:10:30;8.43;;;6.65;;
12024;SDS011;6073;53.230;10.444;2022-11-15T14:13:02;8.80;;;6.95;;
12024;SDS011;6073;53.230;10.444;2022-11-15T14:15:33;7.13;;;6.43;;
12024;SDS011;6073;53.230;10.444;2022-11-15T14:18:03;8.35;;;7.07;;
12024;SDS011;6073;53.230;10.444;2022-11-15T14:20:37;8.35;;;5.90;;
12024;SDS011;6073;53.230;10.444;2022-11-15T14:23:23;8.65;;;5.57;;
12024;SDS011;6073;53.230;10.444;2022-11-15T14:25:53;8.15;;;6.65;;
12024;SDS011;6073;53.230;10.444;2022-11-15T14:30:52;8.38;;;6.28;;
12024;SDS011;6073;53.230;10.444;2022-11-15T14:33:29;7.63;;;6.47;;
12024;SDS011;6073;53.230;10.444;2022-11-15T14:36:18;7.50;;;5.85;;
12024;SDS011;6073;53.230;10.444;2022-11-15T14:38:48;8.25;;;6.20;;
12024;SDS011;6073;53.230;10.444;2022-11-15T14:41:29;7.75;;;6.25;;
12024;SDS011;6073;53.230;10.444;2022-11-15T14:44:00;9.43;;;7.05;;
12024;SDS011;6073;53.230;10.444;2022-11-15T14:46:26;6.68;;;5.97;;
12024;SDS011;6073;53.230;10.444;2022-11-15T14:48:57;7.60;;;6.05;;
12024;SDS011;6073;53.230;10.444;2022-11-15T14:51:43;7.70;;;6.18;;
12024;SDS011;6073;53.230;10.444;2022-11-15T14:54:12;8.82;;;6.35;;
12024;SDS011;6073;53.230;10.444;2022-11-15T14:56:37;6.75;;;5.68;;
12024;SDS011;6073;53.230;10.444;2022-11-15T14:59:06;7.70;;;5.75;;
12024;SDS011;6073;53.230;10.444;2022-11-15T15:01:31;6.28;;;5.65;;
12024;SDS011;6073;53.230;10.444;2022-11-15T15:04:04;8.50;;;6.30;;
12024;SDS011;6073;53.230;10.444;2022-11-15T15:06:37;6.15;;;5.43;;
12024;SDS011;6073;53.230;10.444;2022-11-15T15:09:03;7.25;;;6.00;;
12024;SDS011;6073;53.230;10.444;2022-11-15T15:14:20;7.22;;;5.85;;
12024;SDS011;6073;53.230;10.444;2022-11-15T15:16:49;8.68;;;6.13;;
12024;SDS011;6073;53.230;10.444;2022-11-15T15:19:17;7.55;;;6.30;;
12024;SDS011;6073;53.230;10.444;2022-11-15T15:21:45;6.90;;;6.15;;
12024;SDS011;6073;53.230;10.444;2022-11-15T15:24:17;6.95;;;6.25;;
12024;SDS011;6073;53.230;10.444;2022-11-15T15:26:43;8.95;;;6.45;;
12024;SDS011;6073;53.230;10.444;2022-11-15T15:29:09;13.35;;;9.65;;
12024;SDS011;6073;53.230;10.444;2022-11-15T15:31:34;10.82;;;8.77;;
12024;SDS011;6073;53.230;10.444;2022-11-15T15:34:03;11.43;;;9.27;;
12024;SDS011;6073;53.230;10.444;2022-11-15T15:36:29;12.48;;;9.77;;
12024;SDS011;6073;53.230;10.444;2022-11-15T15:38:55;11.23;;;8.25;;
12024;SDS011;6073;53.230;10.444;2022-11-15T15:41:23;9.32;;;7.05;;
12024;SDS011;6073;53.230;10.444;2022-11-15T15:43:52;7.85;;;6.63;;
12024;SDS011;6073;53.230;10.444;2022-11-15T15:46:21;9.35;;;6.60;;
12024;SDS011;6073;53.230;10.444;2022-11-15T15:48:48;8.95;;;6.65;;
12024;SDS011;6073;53.230;10.444;2022-11-15T15:51:15;8.90;;;7.10;;
12024;SDS011;6073;53.230;10.444;2022-11-15T15:53:43;8.35;;;7.45;;
12024;SDS011;6073;53.230;10.444;2022-11-15T15:56:17;10.27;;;7.20;;
12024;SDS011;6073;53.230;10.444;2022-11-15T15:58:45;10.50;;;7.45;;
12024;SDS011;6073;53.230;10.444;2022-11-15T16:01:20;9.32;;;6.38;;
12024;SDS011;6073;53.230;10.444;2022-11-15T16:03:52;8.05;;;6.85;;
12024;SDS011;6073;53.230;10.444;2022-11-15T16:09:13;11.10;;;8.43;;
12024;SDS011;6073;53.230;10.444;2022-11-15T16:11:48;11.25;;;7.38;;
12024;SDS011;6073;53.230;10.444;2022-11-15T16:14:14;9.52;;;7.38;;
12024;SDS011;6073;53.230;10.444;2022-11-15T16:16:46;8.43;;;7.35;;
12024;SDS011;6073;53.230;10.444;2022-11-15T16:19:11;10.95;;;8.50;;
12024;SDS011;6073;53.230;10.444;2022-11-15T16:21:37;11.02;;;8.68;;
12024;SDS011;6073;53.230;10.444;2022-11-15T16:24:08;11.93;;;8.45;;
12024;SDS011;6073;53.230;10.444;2022-11-15T16:26:49;9.63;;;8.15;;
12024;SDS011;6073;53.230;10.444;2022-11-15T16:29:19;10.85;;;7.70;;
12024;SDS011;6073;53.230;10.444;2022-11-15T16:31:45;10.65;;;7.82;;
12024;SDS011;6073;53.230;10.444;2022-11-15T16:34:22;11.80;;;8.63;;
12024;SDS011;6073;53.230;10.444;2022-11-15T16:36:50;10.98;;;8.32;;
12024;SDS011;6073;53.230;10.444;2022-11-15T16:39:16;12.52;;;8.55;;
12024;SDS011;6073;53.230;10.444;2022-11-15T16:41:49;9.88;;;7.90;;
12024;SDS011;6073;53.230;10.444;2022-11-15T16:44:14;12.20;;;10.02;;
12024;SDS011;6073;53.230;10.444;2022-11-15T16:46:46;13.73;;;8.50;;
12024;SDS011;6073;53.230;10.444;2022-11-15T16:49:17;11.57;;;8.25;;
12024;SDS011;6073;53.230;10.444;2022-11-15T16:51:57;12.68;;;8.75;;
12024;SDS011;6073;53.230;10.444;2022-11-15T16:54:32;8.85;;;7.53;;
12024;SDS011;6073;53.230;10.444;2022-11-15T16:56:57;9.57;;;8.50;;
12024;SDS011;6073;53.230;10.444;2022-11-15T16:59:23;11.15;;;8.13;;
12024;SDS011;6073;53.230;10.444;2022-11-15T17:01:58;10.60;;;7.85;;
12024;SDS011;6073;53.230;10.444;2022-11-15T17:04:38;9.82;;;7.85;;
12024;SDS011;6073;53.230;10.444;2022-11-15T17:07:12;10.23;;;7.78;;
12024;SDS011;6073;53.230;10.444;2022-11-15T17:09:40;9.27;;;8.13;;
12024;SDS011;6073;53.230;10.444;2022-11-15T17:12:07;8.68;;;7.40;;
12024;SDS011;6073;53.230;10.444;2022-11-15T17:14:40;9.52;;;7.47;;
12024;SDS011;6073;53.230;10.444;2022-11-15T17:17:12;7.95;;;6.85;;
12024;SDS011;6073;53.230;10.444;2022-11-15T17:19:47;9.40;;;6.95;;